Time;durP1;ratioP1;P1;durP2;ratioP2;P2;SDS_P1;SDS_P2;PMS_P1;PMS_P2;Temp;Humidity;BMP_temperature;BMP_pressure;BME280_temperature;BME280_humidity;BME280_pressure;Samples;Min_cycle;Max_cycle;Signal;HPM_P1;HPM_P2
2023/03/07 00:00:39;;;;;;;7.20;3.40;;;;;;;11.91;46.54;99794.09;4975259;28;20042;-62
2023/03/07 00:03:05;;;;;;;4.45;2.45;;;;;;;11.91;47.46;99794.09;4958697;28;20039;-62
2023/03/07 00:05:31;;;;;;;4.40;2.47;;;;;;;12.04;47.29;99814.09;4974461;28;20461;-62
2023/03/07 00:07:57;;;;;;;5.88;2.78;;;;;;;11.96;47.37;99792.59;4974847;28;20031;-62
2023/03/07 00:10:22;;;;;;;5.72;2.58;;;;;;;12.03;47.35;99809.72;4974937;28;20027;-62
2023/03/07 00:12:48;;;;;;;5.72;3.13;;;;;;;11.97;46.87;99796.97;4974733;28;20075;-62
2023/03/07 00:15:13;;;;;;;3.92;2.50;;;;;;;11.90;47.44;99774.47;4958370;28;20057;-62
2023/03/07 00:17:39;;;;;;;5.85;2.72;;;;;;;11.98;46.82;99790.59;4974462;28;20414;-63
2023/03/07 00:20:06;;;;;;;5.18;2.85;;;;;;;12.10;47.45;99804.53;4942310;28;20019;-62
2023/03/07 00:22:32;;;;;;;6.88;2.80;;;;;;;12.11;46.96;99800.84;4976141;28;20035;-63
2023/03/07 00:24:58;;;;;;;8.20;3.03;;;;;;;12.13;47.30;99806.91;4975550;28;20035;-62
2023/03/07 00:27:23;;;;;;;5.95;2.60;;;;;;;12.08;46.80;99802.03;4959728;28;20045;-62
2023/03/07 00:29:49;;;;;;;4.63;2.78;;;;;;;12.13;46.74;99801.53;4959424;28;20046;-62
2023/03/07 00:32:14;;;;;;;6.70;2.83;;;;;;;11.98;46.65;99777.16;4959648;28;20035;-63
2023/03/07 00:34:40;;;;;;;7.72;3.00;;;;;;;12.12;47.04;99791.78;4975722;28;20054;-62
2023/03/07 00:37:05;;;;;;;4.30;2.50;;;;;;;12.11;47.67;99795.50;4976777;28;20121;-62
2023/03/07 00:39:32;;;;;;;3.60;2.17;;;;;;;12.04;47.03;99786.41;4976769;28;20034;-62
2023/03/07 00:41:58;;;;;;;8.75;2.33;;;;;;;11.96;47.58;99765.75;4975551;28;20045;-62
2023/03/07 00:44:25;;;;;;;4.03;2.22;;;;;;;12.09;46.89;99792.94;4958396;28;20411;-62
2023/03/07 00:46:52;;;;;;;3.67;2.22;;;;;;;12.12;47.00;99802.53;4975782;28;20474;-62
2023/03/07 00:49:19;;;;;;;5.32;2.33;;;;;;;12.06;47.67;99782.53;4959441;28;20081;-62
2023/03/07 00:51:44;;;;;;;2.72;2.03;;;;;;;12.10;47.18;99791.97;4959217;28;20042;-62
2023/03/07 00:54:10;;;;;;;3.05;1.77;;;;;;;12.12;47.31;99789.94;4959237;28;20415;-62
2023/03/07 00:56:35;;;;;;;3.38;2.15;;;;;;;12.13;47.26;99788.94;4975250;28;20097;-62
2023/03/07 00:59:01;;;;;;;3.17;1.95;;;;;;;12.09;47.31;99776.84;4974990;28;20031;-62
2023/03/07 01:01:27;;;;;;;3.50;1.60;;;;;;;12.05;46.87;99775.53;4976816;28;20023;-62
2023/03/07 01:03:52;;;;;;;3.63;2.05;;;;;;;11.97;47.33;99766.59;4976661;28;20093;-62
2023/03/07 01:06:20;;;;;;;4.28;2.20;;;;;;;11.98;47.25;99769.13;4942937;28;20418;-62
2023/03/07 01:08:45;;;;;;;3.50;1.98;;;;;;;11.98;47.52;99758.38;4976170;28;20043;-62
2023/03/07 01:11:12;;;;;;;4.57;2.00;;;;;;;12.08;47.20;99774.34;4959026;28;20049;-62
2023/03/07 01:13:37;;;;;;;6.10;1.88;;;;;;;12.09;47.62;99771.47;4959122;28;20041;-63
2023/03/07 01:16:13;;;;;;;2.95;1.77;;;;;;;12.10;47.42;99767.81;4958751;28;20413;-62
2023/03/07 01:18:39;;;;;;;4.18;1.85;;;;;;;12.01;47.89;99758.06;4974714;28;20042;-63
2023/03/07 01:21:16;;;;;;;4.65;2.47;;;;;;;11.97;47.73;99751.34;4958792;28;20042;-62
2023/03/07 01:23:41;;;;;;;5.38;2.33;;;;;;;12.07;47.85;99770.81;4959266;28;20073;-62
2023/03/07 01:26:10;;;;;;;4.47;2.17;;;;;;;12.10;47.21;99767.81;4974603;28;20054;-62
2023/03/07 01:28:36;;;;;;;3.63;2.33;;;;;;;12.10;47.42;99777.69;4958732;28;20442;-62
2023/03/07 01:31:01;;;;;;;3.50;2.45;;;;;;;12.10;48.01;99765.13;4974526;28;20043;-63
2023/03/07 01:33:27;;;;;;;2.63;2.17;;;;;;;12.11;47.22;99764.13;4958122;28;20063;-62
2023/03/07 01:35:52;;;;;;;3.80;2.67;;;;;;;12.12;48.02;99754.19;4974571;28;20043;-62
2023/03/07 01:38:17;;;;;;;4.53;2.10;;;;;;;12.10;48.17;99751.69;4975623;28;20116;-62
2023/03/07 01:40:43;;;;;;;4.55;1.98;;;;;;;12.07;47.71;99745.81;4942586;28;20081;-62
2023/03/07 01:43:33;;;;;;;3.80;2.22;;;;;;;12.06;48.16;99750.34;4958245;28;20042;-62
2023/03/07 01:46:16;;;;;;;4.65;2.35;;;;;;;12.09;47.51;99747.31;4955394;28;20043;-62
2023/03/07 01:48:43;;;;;;;5.40;2.28;;;;;;;12.10;47.45;99745.50;4990296;28;20067;-62
2023/03/07 01:51:09;;;;;;;3.97;2.47;;;;;;;12.11;47.89;99741.81;4958682;28;20529;-62
2023/03/07 01:53:35;;;;;;;5.22;2.55;;;;;;;12.15;47.35;99732.41;4958804;28;20043;-62
2023/03/07 01:56:00;;;;;;;4.82;2.58;;;;;;;12.16;48.08;99724.19;4942455;28;20536;-62
2023/03/07 01:58:26;;;;;;;5.03;2.80;;;;;;;12.10;47.58;99708.75;4958614;28;20034;-62
2023/03/07 02:00:51;;;;;;;7.68;2.95;;;;;;;12.12;47.34;99709.41;4957916;28;20034;-63
2023/03/07 02:03:27;;;;;;;7.45;3.47;;;;;;;12.08;47.28;99700.03;4975241;28;20035;-62
2023/03/07 02:05:55;;;;;;;9.43;3.75;;;;;;;12.17;48.19;99708.94;4957577;28;20525;-62
2023/03/07 02:08:23;;;;;;;5.68;3.25;;;;;;;12.16;47.72;99701.88;4957779;28;20073;-63
2023/03/07 02:10:48;;;;;;;10.40;3.47;;;;;;;12.18;47.63;99706.06;4974364;28;20030;-62
2023/03/07 02:13:14;;;;;;;5.63;3.50;;;;;;;12.19;48.03;99706.91;4958043;28;20391;-63
2023/03/07 02:15:39;;;;;;;5.18;3.33;;;;;;;12.18;47.94;99700.69;4974115;28;20113;-62
2023/03/07 02:18:05;;;;;;;12.85;4.10;;;;;;;12.13;47.49;99676.22;4974074;28;20539;-62
2023/03/07 02:20:52;;;;;;;7.55;3.97;;;;;;;12.20;47.68;99687.09;4973629;28;20035;-63
2023/03/07 02:23:32;;;;;;;8.60;4.15;;;;;;;12.12;47.78;99676.34;4957609;28;20066;-62
2023/03/07 02:26:03;;;;;;;6.93;3.97;;;;;;;12.17;47.67;99688.28;4989865;28;20375;-62
2023/03/07 02:28:28;;;;;;;10.93;3.55;;;;;;;12.14;47.55;99685.91;4975294;28;20038;-63
2023/03/07 02:30:59;;;;;;;7.82;4.00;;;;;;;12.15;48.00;99689.44;4973374;28;20383;-62
2023/03/07 02:33:25;;;;;;;7.95;4.35;;;;;;;12.15;47.42;99684.94;4973332;28;20054;-62
2023/03/07 02:35:54;;;;;;;6.47;3.70;;;;;;;12.17;47.26;99676.72;4973544;28;20035;-63
2023/03/07 02:38:20;;;;;;;7.20;3.20;;;;;;;12.08;47.41;99661.63;4973256;28;20030;-62
2023/03/07 02:40:46;;;;;;;4.85;3.25;;;;;;;12.13;47.29;99676.22;4973860;28;20109;-63
2023/03/07 02:43:11;;;;;;;7.30;4.05;;;;;;;12.12;47.18;99671.84;4957233;28;20122;-62
2023/03/07 02:45:37;;;;;;;7.55;3.63;;;;;;;12.05;47.44;99667.31;4974553;28;20057;-62
2023/03/07 02:48:02;;;;;;;5.95;3.55;;;;;;;12.09;47.42;99669.47;4973339;28;20031;-62
2023/03/07 02:50:28;;;;;;;7.13;3.20;;;;;;;12.08;47.46;99670.50;4974240;28;20039;-63
2023/03/07 02:52:53;;;;;;;10.40;3.92;;;;;;;12.07;47.58;99665.28;4972951;28;20045;-63
2023/03/07 02:55:19;;;;;;;8.07;3.78;;;;;;;12.07;47.79;99658.09;4974625;28;20054;-62
2023/03/07 02:57:44;;;;;;;9.18;3.33;;;;;;;12.10;47.49;99664.97;4973164;28;20121;-62
2023/03/07 03:00:11;;;;;;;8.63;3.38;;;;;;;12.10;47.87;99654.22;4973082;28;20043;-62
2023/03/07 03:02:37;;;;;;;9.65;3.85;;;;;;;12.09;47.65;99664.13;4972866;28;20034;-62
2023/03/07 03:05:03;;;;;;;9.82;3.78;;;;;;;12.06;47.36;99650.22;4974239;28;20090;-62
2023/03/07 03:07:28;;;;;;;7.57;4.05;;;;;;;12.03;46.90;99658.59;4956549;28;20043;-62
2023/03/07 03:09:54;;;;;;;6.70;4.10;;;;;;;12.01;48.28;99666.81;4972798;28;20107;-63
2023/03/07 03:12:19;;;;;;;8.85;4.00;;;;;;;11.99;47.66;99660.78;4973163;28;20035;-62
2023/03/07 03:14:45;;;;;;;9.98;4.55;;;;;;;11.90;48.11;99642.97;4956711;28;20061;-62
2023/03/07 03:17:10;;;;;;;5.40;3.42;;;;;;;11.97;47.72;99649.38;4940860;28;20031;-62
2023/03/07 03:19:36;;;;;;;7.00;4.07;;;;;;;11.89;47.16;99646.66;4973435;28;20489;-63
2023/03/07 03:22:01;;;;;;;9.07;3.83;;;;;;;11.97;47.68;99656.56;4957112;28;20066;-62
2023/03/07 03:24:26;;;;;;;7.72;3.53;;;;;;;11.97;47.25;99653.91;4973193;28;20387;-62
2023/03/07 03:26:55;;;;;;;9.65;4.32;;;;;;;11.96;48.12;99653.06;4956595;28;20038;-62
2023/03/07 03:29:21;;;;;;;7.18;4.05;;;;;;;11.95;47.39;99646.00;4972709;28;20043;-62
2023/03/07 03:31:46;;;;;;;8.00;3.75;;;;;;;11.95;47.39;99651.34;4957020;28;20035;-62
2023/03/07 03:34:12;;;;;;;6.40;3.22;;;;;;;11.83;48.21;99617.84;4972510;28;20106;-62
2023/03/07 03:36:37;;;;;;;11.27;4.75;;;;;;;11.94;47.18;99638.13;4973825;28;20133;-62
2023/03/07 03:39:04;;;;;;;5.72;3.58;;;;;;;11.95;47.73;99645.19;4974003;28;20035;-62
2023/03/07 03:41:30;;;;;;;9.02;4.22;;;;;;;11.87;48.18;99621.00;4973938;28;20061;-62
2023/03/07 03:43:56;;;;;;;7.57;4.65;;;;;;;11.96;47.65;99634.25;4972667;28;20066;-62
2023/03/07 03:46:21;;;;;;;6.20;3.20;;;;;;;11.96;47.82;99631.59;4972990;28;20034;-62
2023/03/07 03:48:53;;;;;;;8.95;4.55;;;;;;;11.97;47.97;99633.28;4972544;28;20155;-62
2023/03/07 03:51:20;;;;;;;10.77;4.67;;;;;;;11.96;47.79;99625.38;4956317;28;20035;-62
2023/03/07 03:53:45;;;;;;;6.07;3.45;;;;;;;11.92;47.38;99622.19;4972591;28;20272;-62
2023/03/07 03:56:16;;;;;;;8.00;4.45;;;;;;;11.95;47.45;99621.03;4956319;28;20073;-62
2023/03/07 03:58:42;;;;;;;8.02;3.90;;;;;;;11.97;47.85;99625.22;4972890;28;20035;-62
2023/03/07 04:01:10;;;;;;;7.32;3.60;;;;;;;11.92;47.54;99611.44;4972496;28;20031;-62
2023/03/07 04:03:37;;;;;;;8.65;4.03;;;;;;;11.96;48.02;99618.16;4956170;28;20031;-62
2023/03/07 04:06:05;;;;;;;7.72;3.90;;;;;;;11.93;48.17;99610.44;4972534;28;20118;-62
2023/03/07 04:08:31;;;;;;;9.07;4.28;;;;;;;11.76;48.04;99581.94;4953107;28;20039;-62
2023/03/07 04:10:57;;;;;;;6.80;4.40;;;;;;;11.83;48.43;99604.41;4953630;28;20110;-62
2023/03/07 04:13:23;;;;;;;9.57;3.65;;;;;;;11.87;47.63;99600.38;4956782;28;20121;-62
2023/03/07 04:15:48;;;;;;;7.60;4.28;;;;;;;11.80;48.30;99583.28;4956206;28;20070;-62
2023/03/07 04:18:13;;;;;;;9.10;4.13;;;;;;;11.91;48.63;99607.09;4972220;28;20045;-62
2023/03/07 04:20:41;;;;;;;7.55;4.32;;;;;;;11.91;47.35;99596.38;4975728;28;20030;-62
2023/03/07 04:23:06;;;;;;;7.32;3.58;;;;;;;11.83;48.08;99582.13;4975868;28;20098;-62
2023/03/07 04:25:31;;;;;;;13.20;4.22;;;;;;;11.92;48.35;99594.53;4976381;28;20474;-62
2023/03/07 04:27:57;;;;;;;8.75;4.22;;;;;;;11.93;48.27;99591.66;4972828;28;20039;-62
2023/03/07 04:30:22;;;;;;;7.38;3.85;;;;;;;11.93;48.45;99593.50;4972533;28;20474;-62
2023/03/07 04:32:48;;;;;;;10.43;4.20;;;;;;;11.91;48.03;99585.63;4956979;28;20043;-62
2023/03/07 04:35:13;;;;;;;11.90;4.55;;;;;;;11.89;47.47;99582.25;4972837;28;20487;-62
2023/03/07 04:37:38;;;;;;;8.80;4.18;;;;;;;11.87;48.40;99565.50;4956737;28;20038;-62
2023/03/07 04:40:04;;;;;;;8.13;4.13;;;;;;;11.90;48.07;99573.22;4972474;28;20062;-62
2023/03/07 04:42:30;;;;;;;8.30;3.78;;;;;;;11.89;47.19;99576.88;4956430;28;20066;-62
2023/03/07 04:44:55;;;;;;;7.25;4.30;;;;;;;11.90;47.72;99567.84;4972397;28;20071;-62
2023/03/07 04:47:20;;;;;;;7.85;4.25;;;;;;;11.86;48.28;99569.22;4956145;28;20035;-63
2023/03/07 04:49:46;;;;;;;10.52;4.22;;;;;;;11.89;47.79;99562.66;4972550;28;20038;-62
2023/03/07 04:52:11;;;;;;;9.60;3.75;;;;;;;11.87;47.95;99559.28;4955875;28;20457;-62
2023/03/07 04:54:37;;;;;;;7.05;3.70;;;;;;;11.88;47.74;99559.13;4955918;28;20467;-62
2023/03/07 04:57:03;;;;;;;8.10;3.97;;;;;;;11.78;47.76;99544.22;4955869;28;20039;-62
2023/03/07 04:59:28;;;;;;;10.45;4.90;;;;;;;11.78;47.50;99539.66;4957397;28;20031;-63
2023/03/07 05:01:53;;;;;;;7.55;4.22;;;;;;;11.81;48.37;99539.34;4955963;28;20043;-62
2023/03/07 05:04:19;;;;;;;10.85;4.75;;;;;;;11.82;48.04;99532.97;4956744;29;20035;-62
2023/03/07 05:06:44;;;;;;;10.35;4.32;;;;;;;11.87;48.29;99546.72;4956960;28;20044;-62
2023/03/07 05:09:09;;;;;;;11.55;4.57;;;;;;;11.87;48.21;99557.44;4955719;28;20094;-62
2023/03/07 05:11:35;;;;;;;8.98;4.55;;;;;;;11.88;48.15;99543.03;4956809;28;20406;-62
2023/03/07 05:14:01;;;;;;;6.15;3.83;;;;;;;11.89;47.46;99539.31;4971700;28;20089;-62
2023/03/07 05:16:26;;;;;;;6.38;3.63;;;;;;;11.93;48.16;99540.69;4972121;28;20035;-62
2023/03/07 05:18:51;;;;;;;12.20;4.13;;;;;;;11.94;47.87;99542.38;4955394;28;20069;-62
2023/03/07 05:21:17;;;;;;;8.63;4.43;;;;;;;11.84;48.34;99525.59;4956634;28;20066;-62
2023/03/07 05:23:43;;;;;;;9.18;4.60;;;;;;;11.92;48.46;99549.72;4956637;28;20038;-62
2023/03/07 05:26:08;;;;;;;10.13;4.63;;;;;;;11.90;48.20;99535.66;4971513;28;20430;-62
2023/03/07 05:28:33;;;;;;;8.75;4.57;;;;;;;11.91;48.25;99533.81;4957296;28;20422;-62
2023/03/07 05:30:59;;;;;;;11.75;4.07;;;;;;;11.90;47.64;99527.59;4954464;28;20070;-62
2023/03/07 05:33:24;;;;;;;9.25;4.97;;;;;;;11.90;47.96;99535.66;4971003;28;20118;-62
2023/03/07 05:35:50;;;;;;;9.65;4.57;;;;;;;11.90;47.69;99535.66;4955178;28;20101;-63
2023/03/07 05:38:15;;;;;;;7.28;3.88;;;;;;;11.87;48.14;99532.47;4971391;28;20054;-62
2023/03/07 05:40:40;;;;;;;10.32;4.50;;;;;;;11.87;48.45;99535.97;4939735;29;20054;-62
2023/03/07 05:43:06;;;;;;;12.65;4.32;;;;;;;11.87;48.30;99535.97;4955454;28;20123;-62
2023/03/07 05:45:31;;;;;;;9.10;3.90;;;;;;;11.79;47.74;99522.56;4954883;28;20133;-62
2023/03/07 05:47:57;;;;;;;11.50;5.05;;;;;;;11.85;48.21;99531.78;4954943;28;20521;-63
2023/03/07 05:50:22;;;;;;;9.48;3.95;;;;;;;11.83;47.69;99523.09;4970815;28;20468;-62
2023/03/07 05:52:48;;;;;;;9.43;4.53;;;;;;;11.87;48.17;99540.50;4971362;28;20039;-62
2023/03/07 05:55:13;;;;;;;9.93;4.82;;;;;;;11.87;47.67;99530.63;4954707;28;20434;-62
2023/03/07 05:57:39;;;;;;;8.63;4.30;;;;;;;11.80;48.02;99518.06;4954872;28;20047;-62
2023/03/07 06:00:05;;;;;;;13.38;4.88;;;;;;;11.91;48.21;99526.59;4954665;28;20126;-63
2023/03/07 06:02:30;;;;;;;8.75;3.95;;;;;;;11.87;48.24;99511.84;4971362;28;20036;-62
2023/03/07 06:04:56;;;;;;;11.05;4.90;;;;;;;11.88;48.23;99510.84;4955966;28;20035;-62
2023/03/07 06:07:21;;;;;;;9.10;3.80;;;;;;;11.97;47.99;99517.88;4956053;28;20479;-63
2023/03/07 06:09:47;;;;;;;9.95;4.13;;;;;;;11.96;48.21;99518.03;4956860;28;20039;-62
2023/03/07 06:12:12;;;;;;;9.70;4.78;;;;;;;11.95;47.93;99511.81;4954987;28;20035;-63
2023/03/07 06:14:38;;;;;;;10.13;3.80;;;;;;;11.97;47.95;99503.63;4954531;28;20043;-62
2023/03/07 06:17:04;;;;;;;9.77;4.03;;;;;;;11.98;48.20;99503.44;4954432;28;20422;-62
2023/03/07 06:19:30;;;;;;;11.27;5.00;;;;;;;11.99;48.34;99505.13;4954659;28;20098;-62
2023/03/07 06:21:55;;;;;;;9.55;4.78;;;;;;;12.01;47.83;99503.09;4954311;28;20522;-63
2023/03/07 06:24:21;;;;;;;9.68;4.57;;;;;;;12.01;48.01;99504.94;4954281;28;20162;-62
2023/03/07 06:26:46;;;;;;;10.15;4.57;;;;;;;11.96;48.35;99492.03;4954491;28;20456;-62
2023/03/07 06:29:12;;;;;;;15.13;4.40;;;;;;;12.08;48.06;99506.78;4938055;28;20063;-62
2023/03/07 06:31:37;;;;;;;9.68;4.22;;;;;;;12.09;48.27;99497.69;4955860;28;20431;-62
2023/03/07 06:34:02;;;;;;;12.48;5.32;;;;;;;12.05;48.12;99480.28;4970136;28;20059;-62
2023/03/07 06:36:28;;;;;;;9.27;4.57;;;;;;;12.12;47.28;99492.00;4969982;28;20039;-62
2023/03/07 06:38:53;;;;;;;8.60;3.60;;;;;;;12.14;47.46;99500.69;4955253;28;20046;-62
2023/03/07 06:41:19;;;;;;;10.45;4.85;;;;;;;12.06;48.20;99481.94;4953913;28;20088;-62
2023/03/07 06:43:44;;;;;;;11.20;4.00;;;;;;;12.14;47.92;99500.69;4953580;28;20042;-62
2023/03/07 06:46:09;;;;;;;10.18;3.90;;;;;;;12.16;47.94;99497.88;4954053;28;20039;-62
2023/03/07 06:48:35;;;;;;;7.85;4.57;;;;;;;12.09;48.22;99483.44;4953906;28;20070;-62
2023/03/07 06:51:08;;;;;;;8.18;4.30;;;;;;;12.16;48.05;99504.06;4954078;28;20055;-62
2023/03/07 06:53:34;;;;;;;10.07;3.80;;;;;;;12.03;48.04;99481.47;4955137;28;20418;-62
2023/03/07 06:55:59;;;;;;;8.63;4.25;;;;;;;12.15;47.60;99504.22;4953747;28;20031;-62
2023/03/07 06:58:24;;;;;;;9.23;3.42;;;;;;;12.13;48.03;99491.00;4954113;29;20110;-62
2023/03/07 07:00:50;;;;;;;9.55;4.15;;;;;;;12.04;48.20;99470.53;4953664;28;20445;-62
2023/03/07 07:03:17;;;;;;;9.15;4.13;;;;;;;12.03;47.44;99484.16;4953701;28;20036;-62
2023/03/07 07:05:42;;;;;;;9.73;4.10;;;;;;;12.11;48.22;99495.72;4953509;28;20035;-62
2023/03/07 07:08:08;;;;;;;7.90;4.18;;;;;;;12.10;48.06;99499.38;4953785;28;20391;-62
2023/03/07 07:10:33;;;;;;;6.85;3.72;;;;;;;12.11;48.03;99500.22;4953872;28;20020;-62
2023/03/07 07:12:59;;;;;;;8.60;4.53;;;;;;;12.09;48.15;99492.34;4969742;28;20458;-62
2023/03/07 07:15:24;;;;;;;13.43;4.65;;;;;;;12.07;47.87;99478.25;4953689;28;20054;-62
2023/03/07 07:17:50;;;;;;;8.82;4.47;;;;;;;12.02;47.47;99485.16;4969704;28;20039;-62
2023/03/07 07:20:16;;;;;;;10.75;3.97;;;;;;;12.04;47.75;99494.69;4969714;28;20055;-63
2023/03/07 07:22:41;;;;;;;9.10;4.20;;;;;;;11.95;47.96;99484.19;4937834;29;20051;-62
2023/03/07 07:25:07;;;;;;;7.45;4.20;;;;;;;12.03;48.39;99493.00;4937588;28;20062;-62
2023/03/07 07:27:33;;;;;;;6.35;3.50;;;;;;;12.07;47.59;99482.78;4954989;28;20490;-62
2023/03/07 07:29:58;;;;;;;7.20;3.42;;;;;;;12.04;47.78;99483.97;4969488;28;20047;-62
2023/03/07 07:32:23;;;;;;;7.05;3.47;;;;;;;11.99;47.50;99470.22;4937644;28;20395;-62
2023/03/07 07:34:49;;;;;;;7.38;3.83;;;;;;;12.11;47.59;99490.34;4969773;28;20068;-63
2023/03/07 07:37:14;;;;;;;5.57;3.47;;;;;;;12.07;47.96;99472.03;4969572;28;20043;-62
2023/03/07 07:39:42;;;;;;;7.07;3.92;;;;;;;12.16;48.00;99487.97;4953348;28;20036;-63
2023/03/07 07:42:08;;;;;;;8.63;3.90;;;;;;;12.19;47.84;99487.63;4969166;28;20122;-62
2023/03/07 07:44:33;;;;;;;5.93;3.42;;;;;;;12.20;47.34;99483.91;4969561;28;20122;-63
2023/03/07 07:46:59;;;;;;;8.25;4.25;;;;;;;12.20;48.04;99486.59;4954513;28;20384;-62
2023/03/07 07:49:25;;;;;;;7.38;3.78;;;;;;;12.27;47.48;99500.19;4969904;28;20177;-62
2023/03/07 07:51:50;;;;;;;6.85;4.13;;;;;;;12.30;47.84;99494.47;4978374;28;20030;-62
2023/03/07 07:54:16;;;;;;;8.50;3.83;;;;;;;12.28;47.89;99489.25;4993032;28;20453;-62
2023/03/07 07:56:41;;;;;;;5.53;3.53;;;;;;;12.20;47.91;99483.91;4963107;28;20060;-62
2023/03/07 07:59:07;;;;;;;8.75;4.50;;;;;;;12.23;47.96;99482.72;4975864;28;20383;-62
2023/03/07 08:01:32;;;;;;;6.20;3.30;;;;;;;12.35;48.27;99480.50;4944809;28;20035;-62
2023/03/07 08:03:58;;;;;;;7.70;4.00;;;;;;;12.41;48.03;99487.88;4980743;28;20549;-62
2023/03/07 08:06:26;;;;;;;10.38;4.53;;;;;;;12.40;47.67;99488.88;4979207;28;20525;-62
2023/03/07 08:08:52;;;;;;;7.57;3.45;;;;;;;12.38;47.15;99502.50;4995460;28;20117;-62
2023/03/07 08:11:18;;;;;;;8.32;3.92;;;;;;;12.37;47.62;99500.81;4993408;28;20113;-63
2023/03/07 08:13:44;;;;;;;9.13;3.97;;;;;;;12.40;47.97;99510.38;4977599;28;20497;-62
2023/03/07 08:16:15;;;;;;;7.47;4.38;;;;;;;12.39;47.99;99506.03;4976225;28;20034;-62
2023/03/07 08:18:41;;;;;;;7.07;3.58;;;;;;;12.39;48.26;99519.44;4976272;28;20199;-62
2023/03/07 08:21:07;;;;;;;8.25;3.75;;;;;;;12.23;47.86;99488.94;4976372;28;20499;-62
2023/03/07 08:23:33;;;;;;;8.52;3.85;;;;;;;12.36;48.49;99509.06;4976077;28;20490;-62
2023/03/07 08:26:03;;;;;;;7.50;3.92;;;;;;;12.38;47.85;99513.22;4976019;28;20038;-62
2023/03/07 08:28:29;;;;;;;8.23;4.10;;;;;;;12.30;48.21;99499.00;4976207;28;20027;-62
2023/03/07 08:30:54;;;;;;;9.15;4.15;;;;;;;12.41;48.40;99512.03;4975239;28;20046;-62
2023/03/07 08:33:19;;;;;;;9.25;3.95;;;;;;;12.45;47.25;99518.75;4976762;28;20506;-62
2023/03/07 08:35:45;;;;;;;12.93;4.18;;;;;;;12.49;47.40;99509.31;4975936;28;20130;-62
2023/03/07 08:38:10;;;;;;;9.52;4.20;;;;;;;12.51;48.12;99512.66;4974880;28;20383;-62
2023/03/07 08:40:35;;;;;;;7.88;3.88;;;;;;;12.54;47.53;99506.94;4975939;28;20038;-62
2023/03/07 08:43:01;;;;;;;10.30;4.13;;;;;;;12.67;47.45;99516.13;4959299;28;20078;-62
2023/03/07 08:45:26;;;;;;;6.18;3.25;;;;;;;12.69;47.33;99522.19;4959078;28;20038;-62
2023/03/07 08:47:55;;;;;;;6.68;3.55;;;;;;;12.75;47.41;99526.03;4943230;28;20042;-62
2023/03/07 08:50:24;;;;;;;7.28;3.88;;;;;;;12.78;48.00;99509.53;4975238;28;20045;-63
2023/03/07 08:52:49;;;;;;;7.10;3.67;;;;;;;12.74;47.23;99497.47;4959467;28;20054;-62
2023/03/07 08:55:15;;;;;;;6.93;3.45;;;;;;;12.72;47.50;99500.34;4975337;28;20069;-62
2023/03/07 08:57:41;;;;;;;11.70;4.22;;;;;;;12.81;48.11;99514.56;4959275;28;20031;-62
2023/03/07 09:00:08;;;;;;;10.60;4.10;;;;;;;12.90;47.53;99513.50;4959030;28;20410;-62
2023/03/07 09:02:34;;;;;;;9.10;4.78;;;;;;;12.97;48.25;99501.03;4975468;28;20502;-62
2023/03/07 09:04:59;;;;;;;9.90;4.20;;;;;;;13.02;46.90;99501.34;4974645;28;20038;-63
2023/03/07 09:07:26;;;;;;;7.43;4.70;;;;;;;13.04;48.01;99515.44;4958970;28;20459;-62
2023/03/07 09:09:51;;;;;;;9.25;4.60;;;;;;;13.04;47.42;99504.69;4974344;28;20121;-62
2023/03/07 09:12:16;;;;;;;7.43;3.88;;;;;;;12.99;47.40;99512.44;4974727;28;20178;-62
2023/03/07 09:14:42;;;;;;;7.70;3.97;;;;;;;13.01;47.72;99507.72;4975031;28;20129;-63
2023/03/07 09:17:08;;;;;;;9.57;5.03;;;;;;;12.97;48.32;99492.97;4974752;28;20046;-63
2023/03/07 09:19:34;;;;;;;8.85;4.35;;;;;;;13.03;48.12;99505.72;4991405;28;20177;-63
2023/03/07 09:21:59;;;;;;;7.32;3.80;;;;;;;12.92;47.74;99495.38;4958989;28;20031;-62
2023/03/07 09:24:24;;;;;;;10.20;4.30;;;;;;;12.96;47.80;99515.47;4975851;28;20096;-62
2023/03/07 09:26:51;;;;;;;6.18;3.65;;;;;;;12.96;47.18;99514.63;4958658;28;20109;-63
2023/03/07 09:29:16;;;;;;;11.70;4.00;;;;;;;12.93;48.29;99513.16;4990642;28;20126;-62
2023/03/07 09:31:43;;;;;;;6.97;4.18;;;;;;;12.92;46.93;99526.78;4976269;28;20157;-63
2023/03/07 09:34:08;;;;;;;8.80;4.18;;;;;;;12.94;47.75;99536.34;4975602;28;20525;-62
2023/03/07 09:36:35;;;;;;;5.65;3.30;;;;;;;12.91;47.52;99525.94;4974647;28;20034;-62
2023/03/07 09:39:01;;;;;;;11.10;4.38;;;;;;;12.82;47.22;99510.84;4990681;28;20043;-62
2023/03/07 09:41:45;;;;;;;7.32;3.53;;;;;;;12.88;47.22;99515.53;4990770;28;20033;-62
2023/03/07 09:44:26;;;;;;;7.07;3.45;;;;;;;12.82;48.00;99522.44;4975547;28;20038;-63
2023/03/07 09:47:10;;;;;;;5.57;3.42;;;;;;;12.81;48.02;99528.00;4991169;28;20035;-63
2023/03/07 09:49:48;;;;;;;7.68;3.72;;;;;;;12.84;48.21;99527.66;4990366;28;20047;-62
2023/03/07 09:52:28;;;;;;;6.78;3.83;;;;;;;12.80;48.03;99529.84;4957968;28;20501;-63
2023/03/07 09:55:00;;;;;;;8.73;3.95;;;;;;;12.80;47.60;99529.00;4975360;28;20502;-63
2023/03/07 09:57:27;;;;;;;5.65;3.22;;;;;;;12.82;48.10;99524.28;4974122;28;20146;-62
2023/03/07 10:00:09;;;;;;;7.07;3.33;;;;;;;12.84;47.92;99527.66;4990394;28;20089;-62
2023/03/07 10:02:45;;;;;;;7.60;3.55;;;;;;;12.76;48.38;99522.31;4975343;28;20110;-62
2023/03/07 10:05:26;;;;;;;6.80;3.85;;;;;;;12.76;48.76;99522.31;4957859;28;20434;-63
2023/03/07 10:07:51;;;;;;;4.18;2.78;;;;;;;12.67;47.62;99513.44;4974078;28;20121;-63
2023/03/07 10:10:26;;;;;;;6.50;3.08;;;;;;;12.70;47.60;99517.66;4958099;28;20130;-62
2023/03/07 10:12:51;;;;;;;6.35;2.67;;;;;;;12.76;48.62;99530.34;4993223;28;20064;-63
2023/03/07 10:15:34;;;;;;;6.38;3.13;;;;;;;12.73;48.25;99531.56;4994382;28;20456;-63
2023/03/07 10:18:22;;;;;;;5.03;3.17;;;;;;;12.76;47.47;99527.69;4976802;28;20034;-62
2023/03/07 10:21:13;;;;;;;4.22;2.58;;;;;;;12.73;48.31;99533.44;5009264;28;20042;-63
2023/03/07 10:24:01;;;;;;;6.88;2.97;;;;;;;12.68;48.08;99525.03;4993181;28;20034;-62
2023/03/07 10:26:41;;;;;;;8.40;3.33;;;;;;;12.66;48.59;99530.59;4993545;28;20039;-62
2023/03/07 10:29:16;;;;;;;4.13;2.75;;;;;;;12.67;48.28;99529.56;4977575;28;20104;-62
2023/03/07 10:31:46;;;;;;;6.63;2.60;;;;;;;12.61;48.38;99513.31;4994363;28;20486;-63
2023/03/07 10:34:19;;;;;;;5.60;3.28;;;;;;;12.70;47.68;99528.41;4992584;28;20046;-62
2023/03/07 10:36:47;;;;;;;6.65;2.85;;;;;;;12.55;48.48;99505.94;4976689;28;20498;-63
2023/03/07 10:39:26;;;;;;;6.97;2.83;;;;;;;12.71;48.11;99519.31;4992819;28;20490;-63
2023/03/07 10:41:52;;;;;;;5.95;2.70;;;;;;;12.73;47.21;99514.63;4992883;28;20041;-63
2023/03/07 10:44:19;;;;;;;4.63;3.10;;;;;;;12.71;48.06;99525.53;5009081;28;20034;-63
2023/03/07 10:46:45;;;;;;;5.75;3.33;;;;;;;12.76;47.66;99524.97;4977162;28;20038;-62
2023/03/07 10:49:14;;;;;;;5.30;3.10;;;;;;;12.78;48.30;99518.44;4993754;28;20041;-62
2023/03/07 10:51:51;;;;;;;5.43;2.95;;;;;;;12.79;48.63;99521.94;4976421;28;20038;-63
2023/03/07 10:54:20;;;;;;;9.20;2.90;;;;;;;12.78;47.92;99525.66;4993904;28;20034;-65
2023/03/07 10:57:02;;;;;;;7.00;2.70;;;;;;;12.76;48.32;99530.34;4992848;28;20089;-64
2023/03/07 10:59:28;;;;;;;3.38;1.65;;;;;;;12.73;48.49;99530.75;4976363;28;20093;-63
2023/03/07 11:01:56;;;;;;;5.25;2.20;;;;;;;12.74;48.33;99530.53;4976239;28;20030;-66
2023/03/07 11:04:24;;;;;;;2.65;1.60;;;;;;;12.72;47.62;99529.06;4977029;28;20033;-63
2023/03/07 11:06:49;;;;;;;2.55;1.45;;;;;;;12.77;48.38;99523.97;4970175;28;20415;-64
2023/03/07 11:09:34;;;;;;;2.78;1.65;;;;;;;12.77;47.23;99529.34;4989016;28;20039;-63
2023/03/07 11:12:05;;;;;;;4.05;1.98;;;;;;;12.78;48.37;99514.91;4973112;28;20035;-64
2023/03/07 11:14:48;;;;;;;2.80;1.48;;;;;;;12.79;48.61;99521.94;4989151;28;20486;-63
2023/03/07 11:17:21;;;;;;;2.35;1.73;;;;;;;12.80;48.31;99524.47;4989671;28;20419;-62
2023/03/07 11:19:50;;;;;;;2.58;1.50;;;;;;;12.79;48.56;99508.50;4957365;28;20552;-62
2023/03/07 11:22:32;;;;;;;2.60;1.33;;;;;;;12.89;48.04;99516.38;4956811;28;20031;-67
2023/03/07 11:25:20;;;;;;;2.33;1.55;;;;;;;12.85;48.27;99515.88;4956802;28;20536;-63
2023/03/07 11:27:48;;;;;;;2.35;1.45;;;;;;;12.84;47.49;99512.34;4972588;28;20046;-63
2023/03/07 11:30:34;;;;;;;2.70;1.60;;;;;;;12.89;47.32;99516.38;5006317;28;20170;-64
2023/03/07 11:33:05;;;;;;;2.38;1.25;;;;;;;12.88;48.64;99520.06;4980450;28;20035;-62